createdAt,value
2022-12-23T01:56:32.618Z,23.03
2022-12-23T01:57:32.649Z,22.93
2022-12-23T01:58:32.573Z,22.99
2022-12-23T01:59:32.530Z,23.02
2022-12-23T02:00:32.532Z,22.99
2022-12-23T02:01:32.641Z,22.99
2022-12-23T02:02:32.622Z,22.97
2022-12-23T02:04:32.533Z,22.99
2022-12-23T02:05:32.485Z,23.02
2022-12-23T02:06:32.475Z,23.05
2022-12-23T02:07:32.483Z,23.05
2022-12-23T02:08:32.459Z,23.00
2022-12-23T02:09:32.444Z,23.00
2022-12-23T02:10:32.481Z,23.03
2022-12-23T02:11:32.431Z,22.99
2022-12-23T02:12:32.432Z,23.03
2022-12-23T02:13:32.410Z,23.05
2022-12-23T02:14:32.514Z,23.00
2022-12-23T02:15:32.399Z,23.03
2022-12-23T02:16:32.446Z,23.02
2022-12-23T02:17:32.370Z,22.97
2022-12-23T02:18:32.364Z,23.06
2022-12-23T02:19:32.342Z,23.02
2022-12-23T02:20:32.339Z,23.02
2022-12-23T02:21:32.345Z,23.05
2022-12-23T02:22:32.313Z,23.02
2022-12-23T02:23:32.289Z,23.02
2022-12-23T02:24:32.287Z,23.06
2022-12-23T02:25:32.259Z,23.03
2022-12-23T02:26:32.262Z,23.00
2022-12-23T02:27:32.252Z,23.08
2022-12-23T02:28:32.237Z,23.08
2022-12-23T02:29:32.222Z,23.05
2022-12-23T02:30:32.256Z,23.11
2022-12-23T02:31:32.279Z,23.08
2022-12-23T02:32:32.190Z,23.09
2022-12-23T02:33:33.027Z,23.05
2022-12-23T02:34:32.164Z,23.12
2022-12-23T02:35:32.145Z,23.11
2022-12-23T02:36:32.148Z,23.03
2022-12-23T02:37:32.132Z,23.08
2022-12-23T02:38:32.151Z,23.09
2022-12-23T02:39:32.204Z,23.09
2022-12-23T02:40:32.097Z,23.05
2022-12-23T02:41:32.082Z,23.10
2022-12-23T02:42:32.078Z,23.09
2022-12-23T02:43:32.084Z,23.09
2022-12-23T02:44:32.057Z,23.09
2022-12-23T02:45:32.043Z,23.02
2022-12-23T02:46:32.081Z,23.08
2022-12-23T02:47:32.052Z,23.03
2022-12-23T02:48:32.039Z,23.06
2022-12-23T02:49:32.019Z,23.09
2022-12-23T02:50:32.009Z,23.09
2022-12-23T02:51:32.007Z,23.11
2022-12-23T02:52:31.981Z,23.06
2022-12-23T02:53:31.973Z,23.09
2022-12-23T02:54:31.963Z,23.11
2022-12-23T02:55:31.965Z,23.08
2022-12-23T02:56:31.941Z,23.12
2022-12-23T02:57:31.938Z,23.09
2022-12-23T02:58:31.956Z,23.09
2022-12-23T02:59:31.928Z,23.12
2022-12-23T03:00:31.910Z,23.09
2022-12-23T03:01:32.003Z,23.11
2022-12-23T03:02:32.030Z,23.11
2022-12-23T03:03:31.986Z,23.12
2022-12-23T03:04:31.886Z,23.03
2022-12-23T03:05:31.878Z,23.11
2022-12-23T03:06:31.876Z,23.15
2022-12-23T03:07:31.883Z,23.09
2022-12-23T03:08:31.849Z,23.08
2022-12-23T03:09:31.920Z,23.14
2022-12-23T03:10:31.844Z,23.10
2022-12-23T03:11:31.845Z,23.08
2022-12-23T03:12:31.840Z,23.10
2022-12-23T03:13:31.836Z,23.11
2022-12-23T03:14:31.835Z,23.12
2022-12-23T03:15:31.843Z,23.11
2022-12-23T03:16:31.806Z,23.12
2022-12-23T03:17:31.806Z,23.14
2022-12-23T03:18:31.794Z,23.12
2022-12-23T03:19:31.892Z,23.15
2022-12-23T03:20:31.791Z,23.14
2022-12-23T03:21:31.771Z,23.14
2022-12-23T03:22:31.766Z,23.17
2022-12-23T03:23:31.762Z,23.14
2022-12-23T03:24:31.740Z,23.17
2022-12-23T03:25:31.735Z,23.20
2022-12-23T03:26:31.728Z,23.20
2022-12-23T03:27:31.714Z,23.19
2022-12-23T03:28:31.711Z,23.17
2022-12-23T03:29:31.686Z,23.15
2022-12-23T03:30:31.667Z,23.20
2022-12-23T03:31:31.748Z,23.17
2022-12-23T03:32:31.644Z,23.20
2022-12-23T03:33:31.677Z,23.17
2022-12-23T03:34:31.644Z,23.17
2022-12-23T03:35:31.606Z,23.17
2022-12-23T03:36:31.599Z,23.20
2022-12-23T03:37:31.597Z,23.20
2022-12-23T03:38:31.573Z,23.18
2022-12-23T03:39:31.581Z,23.26
2022-12-23T03:40:31.552Z,23.21
2022-12-23T03:41:31.574Z,23.23
2022-12-23T03:42:31.540Z,23.21
2022-12-23T03:43:31.524Z,23.20
2022-12-23T03:44:31.660Z,23.21
2022-12-23T03:45:40.643Z,23.21
2022-12-23T03:46:32.629Z,23.21
2022-12-23T03:48:31.472Z,23.29
2022-12-23T03:49:31.512Z,23.26
2022-12-23T03:50:31.460Z,23.24
2022-12-23T03:51:31.439Z,23.27
2022-12-23T03:52:31.429Z,23.23
2022-12-23T03:53:31.425Z,23.21
2022-12-23T03:54:31.408Z,23.23
2022-12-23T03:55:31.402Z,23.24
2022-12-23T03:56:31.399Z,23.30
2022-12-23T03:57:31.379Z,23.26
2022-12-23T03:58:31.366Z,23.27
2022-12-23T03:59:31.499Z,23.24
2022-12-23T04:00:31.355Z,23.24
2022-12-23T04:01:31.404Z,23.27
2022-12-23T04:02:31.518Z,23.24
2022-12-23T04:03:31.390Z,23.26
2022-12-23T04:04:31.503Z,23.27
2022-12-23T04:05:31.317Z,23.29
2022-12-23T04:06:31.295Z,23.29
2022-12-23T04:07:31.293Z,23.29
2022-12-23T04:08:31.283Z,23.30
2022-12-23T04:09:31.279Z,23.31
2022-12-23T04:10:31.264Z,23.31
2022-12-23T04:11:31.254Z,23.29
2022-12-23T04:12:31.260Z,23.28
2022-12-23T04:13:31.261Z,23.28
2022-12-23T04:14:31.416Z,23.26
2022-12-23T04:15:31.237Z,23.31
2022-12-23T04:16:31.285Z,23.34
2022-12-23T04:17:31.224Z,23.31
2022-12-23T04:18:31.218Z,23.28
2022-12-23T04:19:31.209Z,23.31
2022-12-23T04:20:31.199Z,23.30
2022-12-23T04:21:31.186Z,23.27
2022-12-23T04:22:31.175Z,23.31
2022-12-23T04:23:31.174Z,23.30
2022-12-23T04:24:31.309Z,23.31
2022-12-23T04:25:31.181Z,23.33
2022-12-23T04:26:31.142Z,23.34
2022-12-23T04:27:31.126Z,23.30
2022-12-23T04:28:31.117Z,23.31
2022-12-23T04:29:31.117Z,23.31
2022-12-23T04:30:34.466Z,23.30
2022-12-23T04:31:31.113Z,23.32
2022-12-23T04:32:31.065Z,23.37
2022-12-23T04:33:31.055Z,23.37
2022-12-23T04:34:31.037Z,23.33
2022-12-23T04:36:31.024Z,23.36
2022-12-23T04:37:31.012Z,23.38
2022-12-23T04:38:30.998Z,23.36
2022-12-23T04:39:31.000Z,23.34
2022-12-23T04:40:30.994Z,23.34
2022-12-23T04:41:30.970Z,23.32
2022-12-23T04:42:30.964Z,23.40
2022-12-23T04:43:30.945Z,23.36
2022-12-23T04:44:30.947Z,23.38
2022-12-23T04:45:30.932Z,23.37
2022-12-23T04:46:30.923Z,23.34
2022-12-23T04:47:30.890Z,23.38
2022-12-23T04:48:30.874Z,23.38
2022-12-23T04:49:30.849Z,23.34
2022-12-23T04:50:30.830Z,23.40
2022-12-23T04:52:30.803Z,23.36
2022-12-23T05:01:30.865Z,23.37
2022-12-23T05:39:30.253Z,23.46
2022-12-23T05:40:31.145Z,23.42
2022-12-23T05:41:30.220Z,23.48
2022-12-23T05:42:30.213Z,23.46
2022-12-23T05:43:30.207Z,23.49
2022-12-23T05:44:30.191Z,23.46
2022-12-23T05:45:30.246Z,23.48
2022-12-23T05:46:30.224Z,23.46
2022-12-23T05:47:30.176Z,23.49
2022-12-23T05:48:30.156Z,23.48
2022-12-23T05:49:30.184Z,23.51
2022-12-23T05:50:30.137Z,23.49
2022-12-23T05:51:30.131Z,23.46
2022-12-23T05:52:30.104Z,23.45
2022-12-23T05:54:30.076Z,23.46
2022-12-23T10:58:22.130Z,24.96
2022-12-23T10:59:22.088Z,25.00
2022-12-23T11:00:22.104Z,24.98
2022-12-23T11:01:27.150Z,24.97
2022-12-23T11:02:23.194Z,24.96
2022-12-23T11:03:22.035Z,25.05
2022-12-23T11:04:21.933Z,25.04
2022-12-23T11:05:21.883Z,25.07
2022-12-23T11:06:21.853Z,25.14
2022-12-23T11:08:22.787Z,25.14
2022-12-23T11:09:21.750Z,25.22
2022-12-23T11:10:21.706Z,25.23
2022-12-23T11:11:21.708Z,25.26
2022-12-23T11:12:21.638Z,25.27
2022-12-23T11:13:21.602Z,25.23
2022-12-23T11:14:21.576Z,25.29
2022-12-23T11:15:21.538Z,25.25
2022-12-23T11:16:21.564Z,25.26
2022-12-23T11:17:21.509Z,25.19
2022-12-23T11:18:21.425Z,25.20
2022-12-23T11:19:21.386Z,25.17
2022-12-23T11:20:21.346Z,25.27
2022-12-23T11:21:21.311Z,25.29
2022-12-23T11:22:21.276Z,25.30
2022-12-23T11:23:21.250Z,25.27
2022-12-23T11:24:21.211Z,25.26
2022-12-23T11:25:21.179Z,25.26
2022-12-23T11:26:21.148Z,25.27
2022-12-23T11:27:21.138Z,25.28
2022-12-23T11:28:21.102Z,25.31
2022-12-23T11:29:21.045Z,25.33
2022-12-23T11:30:21.008Z,25.32
2022-12-23T11:31:21.037Z,25.31
2022-12-23T11:32:20.955Z,25.31
2022-12-23T11:33:20.899Z,25.39
2022-12-23T11:34:20.874Z,25.30
2022-12-23T11:35:20.867Z,25.35
2022-12-23T11:36:20.787Z,26.40
2022-12-23T11:37:20.766Z,25.75
2022-12-23T11:38:20.724Z,25.74
2022-12-23T11:39:20.703Z,25.73
2022-12-23T11:40:20.672Z,25.66
2022-12-23T11:41:20.626Z,25.71
2022-12-23T11:42:20.578Z,25.76
2022-12-23T11:43:20.538Z,25.77
2022-12-23T11:44:20.498Z,25.88
2022-12-23T11:45:20.475Z,25.82
2022-12-23T11:46:20.553Z,25.78
2022-12-23T11:47:20.408Z,25.63
2022-12-23T11:48:20.371Z,25.54
2022-12-23T11:49:20.349Z,25.40
2022-12-23T11:50:20.297Z,25.35
2022-12-23T11:51:20.269Z,25.36
2022-12-23T11:52:20.235Z,25.31
2022-12-23T11:53:20.198Z,25.29
2022-12-23T11:54:20.154Z,25.26
2022-12-23T11:55:20.167Z,25.29
2022-12-23T11:56:20.139Z,25.18
2022-12-23T15:32:13.472Z,25.17
2022-12-23T15:33:43.223Z,25.22
2022-12-23T15:34:17.259Z,25.19
2022-12-23T15:35:13.394Z,25.20
2022-12-23T15:36:13.412Z,25.20
2022-12-23T15:37:13.357Z,25.19
2022-12-23T15:38:13.330Z,25.23
2022-12-23T15:39:13.313Z,25.19
2022-12-23T15:40:13.855Z,25.23
2022-12-23T15:41:13.255Z,25.23
2022-12-23T15:42:13.233Z,25.21
2022-12-23T15:43:13.204Z,25.23
2022-12-23T15:44:13.185Z,25.21
2022-12-23T15:45:13.177Z,25.21
2022-12-23T15:46:13.205Z,25.24
2022-12-23T15:47:13.183Z,25.20
2022-12-23T15:48:13.092Z,25.21
2022-12-23T15:49:13.075Z,25.19
2022-12-23T15:50:13.052Z,25.23
2022-12-23T15:51:13.024Z,25.21
2022-12-23T15:52:19.921Z,25.23
2022-12-23T15:54:12.976Z,25.21
2022-12-23T15:55:12.951Z,25.16
2022-12-23T15:56:12.928Z,25.18
2022-12-23T15:57:12.893Z,25.24
2022-12-23T15:58:12.884Z,25.24
2022-12-23T15:59:12.859Z,25.23
2022-12-23T16:00:12.854Z,25.20
2022-12-23T16:01:12.841Z,25.21
2022-12-23T16:02:40.908Z,25.22
2022-12-23T16:04:12.988Z,25.24
2022-12-23T16:05:12.773Z,25.22
2022-12-23T16:06:12.730Z,25.25
2022-12-23T16:07:12.713Z,25.20
2022-12-23T16:08:12.704Z,25.21
2022-12-23T16:09:12.663Z,25.22
2022-12-23T16:10:12.643Z,25.24
2022-12-23T16:11:12.634Z,25.21
2022-12-23T16:12:12.612Z,25.19
2022-12-23T16:13:12.594Z,25.21
2022-12-23T16:14:12.573Z,25.21
2022-12-23T16:15:12.556Z,25.25
2022-12-23T16:16:12.577Z,25.19
2022-12-23T16:17:12.529Z,25.22
2022-12-23T16:18:12.514Z,25.21
2022-12-23T16:19:12.504Z,25.18
2022-12-23T16:20:12.485Z,25.22
2022-12-23T16:21:12.465Z,25.18
2022-12-23T16:22:12.452Z,25.24
2022-12-23T16:23:12.440Z,25.21
2022-12-23T16:24:12.415Z,25.16
2022-12-23T16:25:12.409Z,25.21
2022-12-23T17:17:11.446Z,25.27
2022-12-23T17:18:11.441Z,25.25
2022-12-23T17:19:11.429Z,25.28
2022-12-23T17:20:11.400Z,25.28
2022-12-23T17:21:11.386Z,25.31
2022-12-23T17:22:11.381Z,25.25
2022-12-23T17:23:11.358Z,25.27
2022-12-23T17:24:11.356Z,25.29
2022-12-23T17:25:11.330Z,25.29
2022-12-23T17:26:11.322Z,25.25
2022-12-23T17:27:11.300Z,25.26
2022-12-23T17:28:11.291Z,25.33
2022-12-23T17:29:11.258Z,25.28
2022-12-23T17:30:11.251Z,25.26
2022-12-23T17:31:15.390Z,25.27
2022-12-23T17:32:12.321Z,25.26
2022-12-23T17:33:11.176Z,25.26
2022-12-23T17:34:11.166Z,25.25
2022-12-23T17:35:11.156Z,25.25
2022-12-23T17:36:11.236Z,25.30
2022-12-23T17:37:11.135Z,25.27
2022-12-23T17:38:11.108Z,25.27
2022-12-23T17:39:11.091Z,25.27
2022-12-23T17:40:11.083Z,25.27
2022-12-23T17:41:11.077Z,25.23
2022-12-23T17:42:11.058Z,25.27
2022-12-23T17:43:11.045Z,25.23
2022-12-23T17:44:11.025Z,25.23
2022-12-23T17:45:11.013Z,25.27
2022-12-23T17:46:11.025Z,25.27
2022-12-23T17:47:10.995Z,25.25
2022-12-23T17:48:16.290Z,25.27
2022-12-23T17:49:11.959Z,25.25
2022-12-23T17:50:10.930Z,25.27
2022-12-23T17:51:10.921Z,25.23
2022-12-23T17:52:10.919Z,25.29
2022-12-23T17:53:10.894Z,25.19
2022-12-23T17:54:10.886Z,25.27
2022-12-23T17:55:10.869Z,25.24
2022-12-23T17:56:10.848Z,25.30
2022-12-23T17:57:10.829Z,25.29
2022-12-23T17:58:10.814Z,25.27
2022-12-23T17:59:10.783Z,25.29
2022-12-23T18:00:10.767Z,25.27
2022-12-23T18:01:10.832Z,25.24
2022-12-23T18:02:10.808Z,25.23
2022-12-23T18:03:10.715Z,25.23
2022-12-23T18:04:10.704Z,25.24
2022-12-23T18:05:10.678Z,25.22
2022-12-23T18:06:10.678Z,25.28
2022-12-23T18:07:10.639Z,25.29
2022-12-23T18:08:10.640Z,25.24
2022-12-23T18:09:10.607Z,25.21
2022-12-23T18:10:10.582Z,25.26
2022-12-23T18:11:10.580Z,25.21
2022-12-23T18:12:10.551Z,25.28
2022-12-23T18:13:10.531Z,25.24
2022-12-23T18:14:10.510Z,25.24
2022-12-23T18:15:10.483Z,25.24
2022-12-23T18:16:10.519Z,25.23
2022-12-23T18:17:10.525Z,25.27
2022-12-23T18:18:10.435Z,25.21
2022-12-23T18:19:10.439Z,25.26
2022-12-23T18:20:10.410Z,25.20
2022-12-23T18:21:10.382Z,25.18
2022-12-23T18:22:10.395Z,25.24
2022-12-23T18:23:10.385Z,25.23
2022-12-23T18:24:10.332Z,25.21
2022-12-23T18:25:10.349Z,25.17
2022-12-23T18:26:10.306Z,25.23
2022-12-23T18:27:10.300Z,25.21
2022-12-23T18:28:10.272Z,25.25
2022-12-23T18:29:10.257Z,25.30
2022-12-23T18:30:10.246Z,25.18
2022-12-23T18:31:10.284Z,25.21
2022-12-23T18:32:10.213Z,25.24
2022-12-23T18:33:10.209Z,25.20
2022-12-23T18:34:10.188Z,25.20
2022-12-23T18:35:10.176Z,25.18
2022-12-23T18:36:10.212Z,25.21
2022-12-23T18:37:10.143Z,25.22
2022-12-23T18:38:10.148Z,25.21
2022-12-23T18:39:10.120Z,25.21
2022-12-23T18:40:10.117Z,25.21
2022-12-23T18:42:10.087Z,25.22
2022-12-23T19:11:10.388Z,25.23
